createdAt,value
2019-02-10T00:01:50.674Z,7.56
2019-02-10T00:04:25.828Z,7.60
2019-02-10T00:06:57.675Z,7.61
2019-02-10T00:09:30.150Z,7.63
2019-02-10T00:12:03.008Z,7.62
2019-02-10T00:14:36.062Z,7.65
2019-02-10T00:17:08.307Z,7.63
2019-02-10T00:19:40.870Z,7.66
2019-02-10T00:22:16.602Z,7.67
2019-02-10T00:24:48.536Z,7.66
2019-02-10T00:27:21.655Z,7.68
2019-02-10T00:29:53.461Z,7.64
2019-02-10T00:32:25.675Z,7.70
2019-02-10T00:34:57.609Z,7.70
2019-02-10T00:37:29.596Z,7.70
2019-02-10T00:40:01.133Z,7.67
2019-02-10T00:42:32.749Z,7.62
2019-02-10T00:45:04.458Z,7.62
2019-02-10T00:47:36.063Z,7.60
2019-02-10T00:50:08.204Z,7.65
2019-02-10T00:52:39.565Z,7.59
2019-02-10T00:55:11.334Z,7.58
2019-02-10T00:57:49.383Z,7.48
2019-02-10T01:00:23.147Z,7.46
2019-02-10T01:02:54.831Z,7.45
2019-02-10T01:05:26.379Z,7.43
2019-02-10T01:07:59.631Z,7.36
2019-02-10T01:10:30.979Z,7.39
2019-02-10T01:13:04.323Z,7.39
2019-02-10T01:15:37.507Z,7.37
2019-02-10T01:18:08.941Z,7.32
2019-02-10T01:20:40.299Z,7.36
2019-02-10T01:23:11.418Z,7.32
2019-02-10T01:25:43.097Z,7.44
2019-02-10T01:28:15.598Z,7.45
2019-02-10T01:30:47.208Z,7.33
2019-02-10T01:33:19.507Z,7.39
2019-02-10T01:35:51.624Z,7.46
2019-02-10T01:38:22.807Z,7.39
2019-02-10T01:40:54.293Z,7.46
2019-02-10T01:43:25.557Z,7.39
2019-02-10T01:45:58.110Z,7.36
2019-02-10T01:48:29.659Z,7.42
2019-02-10T01:51:01.402Z,7.48
2019-02-10T01:53:33.694Z,7.48
2019-02-10T01:56:05.654Z,7.53
2019-02-10T01:58:37.546Z,7.54
2019-02-10T02:01:11.522Z,7.53
2019-02-10T02:03:43.205Z,7.60
2019-02-10T02:06:14.999Z,7.64
2019-02-10T02:08:47.141Z,7.65
2019-02-10T02:11:19.509Z,7.63
2019-02-10T02:13:51.938Z,7.65
2019-02-10T02:16:23.257Z,7.63
2019-02-10T02:18:55.730Z,7.71
2019-02-10T02:21:28.439Z,7.73
2019-02-10T02:23:59.806Z,7.68
2019-02-10T02:26:31.179Z,7.72
2019-02-10T02:29:03.579Z,7.69
2019-02-10T02:31:36.653Z,7.77
2019-02-10T02:34:08.660Z,7.72
2019-02-10T02:36:44.543Z,7.74
2019-02-10T02:39:16.099Z,7.76
2019-02-10T02:41:47.576Z,7.74
2019-02-10T02:44:19.567Z,7.79
2019-02-10T02:46:51.582Z,7.90
2019-02-10T02:49:22.707Z,7.81
2019-02-10T02:51:54.558Z,7.84
2019-02-10T02:54:29.227Z,7.82
2019-02-10T02:57:00.668Z,7.78
2019-02-10T02:59:32.245Z,7.79
2019-02-10T03:02:04.607Z,7.80
2019-02-10T03:04:35.800Z,7.70
2019-02-10T03:07:07.214Z,7.75
2019-02-10T03:09:39.164Z,7.64
2019-02-10T03:12:12.043Z,7.59
2019-02-10T03:14:43.253Z,7.53
2019-02-10T03:17:14.865Z,7.55
2019-02-10T03:19:46.371Z,7.61
2019-02-10T03:22:17.711Z,7.53
2019-02-10T03:24:49.207Z,7.52
2019-02-10T03:27:21.165Z,7.45
2019-02-10T03:29:52.595Z,7.49
2019-02-10T03:32:24.679Z,7.45
2019-02-10T03:34:56.063Z,7.41
2019-02-10T03:37:27.704Z,7.41
2019-02-10T03:39:59.449Z,7.50
2019-02-10T03:42:31.209Z,7.39
2019-02-10T03:45:02.613Z,7.37
2019-02-10T03:47:36.465Z,7.42
2019-02-10T03:50:07.974Z,7.35
2019-02-10T03:52:39.485Z,7.30
2019-02-10T03:55:10.846Z,7.22
2019-02-10T03:57:42.381Z,7.23
2019-02-10T04:00:14.571Z,7.29
2019-02-10T04:02:46.281Z,7.30
2019-02-10T04:05:17.852Z,7.13
2019-02-10T04:07:49.378Z,7.20
2019-02-10T04:10:21.334Z,7.21
2019-02-10T04:12:53.083Z,7.15
2019-02-10T04:15:24.190Z,7.20
2019-02-10T04:17:55.299Z,7.22
2019-02-10T04:20:26.885Z,7.22
2019-02-10T04:22:58.997Z,7.25
2019-02-10T04:25:30.175Z,7.24
2019-02-10T04:28:01.623Z,7.28
2019-02-10T04:30:33.842Z,7.19
2019-02-10T04:33:05.370Z,7.27
2019-02-10T04:35:37.273Z,7.16
2019-02-10T04:38:08.720Z,7.27
2019-02-10T04:40:41.076Z,7.21
2019-02-10T04:43:12.175Z,7.21
2019-02-10T04:45:43.599Z,7.18
2019-02-10T04:48:15.663Z,7.23
2019-02-10T04:50:47.071Z,7.21
2019-02-10T04:53:21.505Z,7.14
2019-02-10T04:56:21.265Z,7.13
2019-02-10T04:58:53.009Z,7.20
2019-02-10T05:01:25.290Z,7.24
2019-02-10T05:03:57.110Z,7.25
2019-02-10T05:06:28.573Z,7.18
2019-02-10T05:09:00.789Z,7.21
2019-02-10T05:11:33.619Z,7.26
2019-02-10T05:14:05.383Z,7.21
2019-02-10T05:16:36.766Z,7.22
2019-02-10T05:19:08.392Z,7.23
2019-02-10T05:21:39.847Z,7.25
2019-02-10T05:24:12.154Z,7.24
2019-02-10T05:26:43.630Z,7.28
2019-02-10T05:29:15.003Z,7.26
2019-02-10T05:31:46.085Z,7.20
2019-02-10T05:34:17.662Z,7.22
2019-02-10T05:36:48.769Z,7.24
2019-02-10T05:39:20.486Z,7.20
2019-02-10T05:41:52.231Z,7.25
2019-02-10T05:44:23.630Z,7.22
2019-02-10T05:46:58.215Z,7.23
2019-02-10T05:49:29.685Z,7.19
2019-02-10T05:52:01.138Z,7.18
2019-02-10T05:54:33.154Z,7.23
2019-02-10T05:57:04.707Z,7.27
2019-02-10T05:59:36.042Z,7.20
2019-02-10T06:02:25.146Z,7.27
2019-02-10T06:04:57.908Z,7.37
2019-02-10T06:07:30.890Z,7.40
2019-02-10T06:10:02.031Z,7.36
2019-02-10T06:12:33.550Z,7.32
2019-02-10T06:15:09.135Z,7.37
2019-02-10T06:17:40.414Z,7.40
2019-02-10T06:20:11.578Z,7.39
2019-02-10T06:22:43.104Z,7.36
2019-02-10T06:25:17.157Z,7.46
2019-02-10T06:27:48.343Z,7.45
2019-02-10T06:30:19.913Z,7.52
2019-02-10T06:32:51.196Z,7.45
2019-02-10T06:35:22.761Z,7.50
2019-02-10T06:37:54.248Z,7.52
2019-02-10T06:40:25.356Z,7.59
2019-02-10T06:42:57.560Z,7.55
2019-02-10T06:45:33.831Z,7.61
2019-02-10T06:48:04.931Z,7.70
2019-02-10T06:50:36.625Z,7.60
2019-02-10T06:53:08.350Z,7.69
2019-02-10T06:55:40.483Z,7.71
2019-02-10T06:58:11.592Z,7.70
2019-02-10T07:00:49.779Z,7.70
2019-02-10T07:03:43.593Z,7.64
2019-02-10T07:06:15.522Z,7.70
2019-02-10T07:08:46.992Z,7.68
2019-02-10T07:11:18.724Z,7.73
2019-02-10T07:13:53.350Z,7.75
2019-02-10T07:16:57.728Z,7.72
2019-02-10T07:20:10.960Z,7.75
2019-02-10T07:23:20.990Z,7.79
2019-02-10T07:25:57.776Z,7.71
2019-02-10T07:29:15.460Z,7.75
2019-02-10T07:31:59.695Z,7.88
2019-02-10T07:35:29.841Z,7.89
2019-02-10T07:38:15.958Z,7.91
2019-02-10T07:41:15.595Z,7.83
2019-02-10T07:44:19.840Z,7.83
2019-02-10T07:47:38.858Z,7.83
2019-02-10T07:50:42.203Z,7.74
2019-02-10T07:53:48.778Z,7.84
2019-02-10T07:57:10.588Z,7.75
2019-02-10T08:00:18.991Z,7.93
2019-02-10T08:03:30.658Z,7.95
2019-02-10T08:06:09.684Z,7.84
2019-02-10T08:09:14.267Z,7.91
2019-02-10T08:12:14.430Z,7.81
2019-02-10T08:15:26.384Z,7.86
2019-02-10T08:18:26.546Z,7.93
2019-02-10T08:21:30.131Z,7.87
2019-02-10T08:24:53.301Z,7.90
2019-02-10T08:28:01.469Z,7.80
2019-02-10T08:30:54.937Z,7.66
2019-02-10T08:33:52.944Z,7.62
2019-02-10T08:37:18.857Z,7.59
2019-02-10T08:40:12.453Z,7.59
2019-02-10T08:43:06.115Z,7.52
2019-02-10T08:45:50.761Z,7.55
2019-02-10T08:48:54.674Z,7.60
2019-02-10T08:51:57.686Z,7.59
2019-02-10T08:54:29.798Z,7.63
2019-02-10T08:57:01.374Z,7.58
2019-02-10T08:59:33.767Z,7.56
2019-02-10T09:02:06.096Z,7.61
2019-02-10T09:04:41.010Z,7.63
2019-02-10T09:07:15.463Z,7.56
2019-02-10T09:09:48.810Z,7.65
2019-02-10T09:12:21.742Z,7.60
2019-02-10T09:14:54.721Z,7.51
2019-02-10T09:17:27.236Z,7.50
2019-02-10T09:20:01.044Z,7.43
2019-02-10T09:22:48.667Z,7.37
2019-02-10T09:25:20.574Z,7.33
2019-02-10T09:27:52.128Z,7.35
2019-02-10T09:30:23.814Z,7.30
2019-02-10T09:32:59.002Z,7.23
2019-02-10T09:35:32.251Z,7.29
2019-02-10T09:38:04.114Z,7.23
2019-02-10T09:40:36.878Z,7.23
2019-02-10T09:43:08.753Z,7.25
2019-02-10T09:48:25.859Z,7.18
2019-02-10T09:50:57.581Z,7.15
2019-02-10T09:53:29.424Z,7.14
2019-02-10T09:56:03.995Z,7.13
2019-02-10T09:58:55.216Z,7.14
2019-02-10T10:01:58.235Z,7.17
2019-02-10T10:04:29.480Z,7.14
2019-02-10T10:07:02.217Z,7.16
2019-02-10T10:09:33.901Z,7.18
2019-02-10T10:12:05.221Z,7.12
2019-02-10T10:14:36.858Z,7.15
2019-02-10T10:17:08.832Z,7.10
2019-02-10T10:19:40.991Z,7.09
2019-02-10T10:22:17.355Z,7.07
2019-02-10T10:24:50.758Z,7.09
2019-02-10T10:27:23.294Z,7.07
2019-02-10T10:29:55.817Z,7.11
2019-02-10T10:32:28.568Z,7.11
2019-02-10T10:35:01.314Z,7.10
2019-02-10T10:37:36.854Z,7.13
2019-02-10T10:40:11.173Z,7.11
2019-02-10T10:42:51.403Z,7.15
2019-02-10T10:45:23.855Z,7.10
2019-02-10T10:47:56.418Z,7.05
2019-02-10T10:51:07.513Z,7.03
2019-02-10T10:53:39.908Z,7.04
2019-02-10T10:56:11.635Z,7.01
2019-02-10T10:58:45.132Z,7.01
2019-02-10T11:01:25.235Z,7.02
2019-02-10T11:03:52.013Z,6.95
2019-02-10T11:06:26.480Z,6.93
2019-02-10T11:08:58.372Z,6.88
2019-02-10T11:11:51.969Z,6.92
2019-02-10T11:14:24.014Z,6.90
2019-02-10T11:16:57.582Z,6.91
2019-02-10T11:19:30.599Z,6.97
2019-02-10T11:22:02.550Z,6.88
2019-02-10T11:24:36.654Z,6.93
2019-02-10T11:27:09.806Z,6.96
2019-02-10T11:29:43.040Z,6.95
2019-02-10T11:32:17.605Z,6.98
2019-02-10T11:34:51.807Z,6.95
2019-02-10T11:37:26.839Z,6.95
2019-02-10T11:39:57.218Z,6.99
2019-02-10T11:42:31.121Z,6.99
2019-02-10T11:45:02.711Z,6.95
2019-02-10T11:47:35.806Z,6.95
2019-02-10T11:50:09.083Z,6.93
2019-02-10T11:52:42.646Z,6.98
2019-02-10T11:55:34.704Z,6.93
2019-02-10T11:58:32.007Z,6.95
2019-02-10T12:01:25.595Z,6.93
2019-02-10T12:03:57.910Z,6.90
2019-02-10T12:06:35.638Z,6.86
2019-02-10T12:09:13.881Z,6.86
2019-02-10T12:11:46.401Z,6.89
2019-02-10T12:14:19.493Z,6.84
2019-02-10T12:16:53.557Z,6.82
2019-02-10T12:19:25.456Z,6.78
2019-02-10T12:21:57.735Z,6.78
2019-02-10T12:24:30.799Z,6.79
2019-02-10T12:27:05.696Z,6.78
2019-02-10T12:29:38.598Z,6.73
2019-02-10T12:32:13.966Z,6.77
2019-02-10T12:34:46.742Z,6.84
2019-02-10T12:37:20.701Z,6.90
2019-02-10T12:39:59.903Z,6.86
2019-02-10T12:42:30.860Z,6.82
2019-02-10T12:45:03.307Z,6.85
2019-02-10T12:47:38.768Z,6.90
2019-02-10T12:50:13.233Z,6.88
2019-02-10T12:52:45.180Z,6.85
2019-02-10T12:55:17.303Z,6.86
2019-02-10T12:58:11.338Z,6.89
2019-02-10T13:04:14.545Z,6.88
2019-02-10T13:10:38.662Z,6.90
2019-02-10T13:13:19.098Z,6.98
2019-02-10T13:15:49.020Z,6.93
2019-02-10T13:18:21.367Z,6.89
2019-02-10T13:20:55.934Z,6.96
2019-02-10T13:23:29.714Z,6.97
2019-02-10T13:26:05.015Z,6.99
2019-02-10T13:28:59.060Z,7.01
2019-02-10T13:31:32.021Z,7.01
2019-02-10T13:34:08.404Z,7.02
2019-02-10T13:36:41.552Z,7.12
2019-02-10T13:39:15.103Z,7.17
2019-02-10T13:41:44.783Z,7.24
2019-02-10T13:44:21.777Z,7.24
2019-02-10T13:46:54.368Z,7.28
2019-02-10T13:49:31.805Z,7.36
2019-02-10T13:52:31.211Z,7.32
2019-02-10T13:55:06.343Z,7.39
2019-02-10T13:58:01.303Z,7.45
2019-02-10T14:00:36.703Z,7.50
2019-02-10T14:03:12.835Z,7.51
2019-02-10T14:05:48.757Z,7.38
2019-02-10T14:08:32.699Z,7.42
2019-02-10T14:11:07.634Z,7.58
2019-02-10T14:13:41.240Z,7.61
2019-02-10T14:16:18.013Z,7.65
2019-02-10T14:18:52.123Z,7.59
2019-02-10T14:21:25.117Z,7.62
2019-02-10T14:24:01.427Z,7.62
2019-02-10T14:26:37.914Z,7.49
2019-02-10T14:29:10.019Z,7.46
2019-02-10T14:31:56.847Z,7.51
2019-02-10T14:34:31.145Z,7.39
2019-02-10T14:37:04.289Z,7.29
2019-02-10T14:39:37.535Z,7.13
2019-02-10T14:42:14.975Z,7.12
2019-02-10T14:44:48.686Z,7.06
2019-02-10T14:47:24.201Z,7.10
2019-02-10T14:49:58.001Z,7.04
2019-02-10T14:52:33.064Z,6.97
2019-02-10T14:55:23.029Z,6.99
2019-02-10T14:57:55.979Z,6.97
2019-02-10T15:01:08.812Z,6.93
2019-02-10T15:03:44.171Z,6.97
2019-02-10T15:06:18.008Z,6.94
2019-02-10T15:08:58.889Z,7.02
2019-02-10T15:11:33.638Z,7.08
2019-02-10T15:14:08.571Z,7.14
2019-02-10T15:16:46.753Z,7.24
2019-02-10T15:19:28.081Z,7.29
2019-02-10T15:22:01.873Z,7.10
2019-02-10T15:24:57.049Z,7.10
2019-02-10T15:27:31.060Z,7.06
2019-02-10T15:30:07.126Z,7.04
2019-02-10T15:33:43.387Z,7.02
2019-02-10T15:36:17.001Z,6.97
2019-02-10T15:38:51.328Z,6.88
2019-02-10T15:41:23.785Z,6.77
2019-02-10T15:43:59.240Z,6.75
2019-02-10T15:46:32.457Z,6.75
2019-02-10T15:49:04.925Z,6.62
2019-02-10T15:51:41.012Z,6.59
2019-02-10T15:54:19.779Z,6.59
2019-02-10T15:56:56.533Z,6.56
2019-02-10T15:59:31.852Z,6.55
2019-02-10T16:02:23.880Z,6.52
2019-02-10T16:04:57.990Z,6.49
2019-02-10T16:07:35.754Z,6.44
2019-02-10T16:10:17.032Z,6.35
2019-02-10T16:12:50.362Z,6.37
2019-02-10T16:15:35.090Z,6.27
2019-02-10T16:18:08.587Z,6.20
2019-02-10T16:20:44.778Z,6.17
2019-02-10T16:23:20.089Z,6.14
2019-02-10T16:25:57.686Z,6.13
2019-02-10T16:28:29.914Z,6.16
2019-02-10T16:31:03.819Z,6.13
2019-02-10T16:33:55.009Z,6.04
2019-02-10T16:36:32.927Z,5.96
2019-02-10T16:39:07.762Z,5.92
2019-02-10T16:41:41.664Z,5.85
2019-02-10T16:44:13.527Z,5.82
2019-02-10T16:46:49.613Z,5.77
2019-02-10T16:49:25.851Z,5.68
2019-02-10T16:52:00.683Z,5.70
2019-02-10T16:54:44.902Z,5.67
2019-02-10T16:57:39.469Z,5.63
2019-02-10T17:00:13.436Z,5.53
2019-02-10T17:05:39.888Z,5.57
2019-02-10T17:08:28.007Z,5.53
2019-02-10T17:11:14.095Z,5.47
2019-02-10T17:13:42.979Z,5.34
2019-02-10T17:16:16.756Z,5.33
2019-02-10T17:18:49.486Z,5.37
2019-02-10T17:21:28.764Z,5.40
2019-02-10T17:24:24.420Z,5.33
2019-02-10T17:26:57.715Z,5.34
2019-02-10T17:29:31.081Z,5.35
2019-02-10T17:32:05.210Z,5.36
2019-02-10T17:34:38.675Z,5.33
2019-02-10T17:37:12.165Z,5.38
2019-02-10T17:39:46.665Z,5.37
2019-02-10T17:42:20.760Z,5.26
2019-02-10T17:44:54.431Z,5.23
2019-02-10T17:47:41.126Z,5.29
2019-02-10T17:50:16.474Z,5.18
2019-02-10T17:53:09.500Z,5.22
2019-02-10T18:04:55.397Z,5.22
2019-02-10T18:07:32.934Z,5.24
2019-02-10T18:10:10.024Z,5.23
2019-02-10T18:12:43.621Z,5.17
2019-02-10T18:15:42.439Z,5.14
2019-02-10T18:18:43.224Z,5.14
2019-02-10T18:21:42.509Z,5.20
2019-02-10T18:24:59.870Z,5.20
2019-02-10T18:27:51.774Z,5.17
2019-02-10T18:30:44.933Z,5.17
2019-02-10T18:33:34.997Z,5.14
2019-02-10T18:36:44.930Z,5.10
2019-02-10T18:39:35.488Z,5.11
2019-02-10T18:42:37.636Z,5.07
2019-02-10T18:45:39.393Z,5.03
2019-02-10T18:48:31.230Z,5.05
2019-02-10T18:51:28.855Z,4.96
2019-02-10T18:54:31.319Z,4.93
2019-02-10T18:57:24.835Z,4.92
2019-02-10T19:00:37.946Z,4.89
2019-02-10T19:03:30.392Z,4.98
2019-02-10T19:06:25.803Z,4.87
2019-02-10T19:09:20.684Z,4.91
2019-02-10T19:12:12.295Z,4.83
2019-02-10T19:15:09.901Z,4.80
2019-02-10T19:18:05.785Z,4.86
2019-02-10T19:21:16.986Z,4.85
2019-02-10T19:24:03.434Z,4.72
2019-02-10T19:26:58.935Z,4.73
2019-02-10T19:29:57.201Z,4.64
2019-02-10T19:32:59.054Z,4.66
2019-02-10T19:35:58.199Z,4.59
2019-02-10T19:39:00.519Z,4.43
2019-02-10T19:41:55.920Z,4.38
2019-02-10T19:44:56.667Z,4.47
2019-02-10T19:47:48.478Z,4.56
2019-02-10T19:50:42.763Z,4.44
2019-02-10T19:53:27.378Z,4.43
2019-02-10T19:56:45.020Z,4.20
2019-02-10T20:00:14.066Z,4.13
2019-02-10T20:03:24.502Z,4.07
2019-02-10T20:06:11.387Z,3.95
2019-02-10T20:09:07.052Z,3.93
2019-02-10T20:12:08.408Z,3.93
2019-02-10T20:14:57.931Z,3.88
2019-02-10T20:17:55.621Z,3.86
2019-02-10T20:23:58.522Z,3.90
2019-02-10T20:26:45.965Z,3.98
2019-02-10T20:29:37.994Z,4.09
2019-02-10T20:32:46.084Z,4.07
2019-02-10T20:35:36.446Z,4.12
2019-02-10T20:38:45.412Z,4.19
2019-02-10T20:41:40.937Z,4.26
2019-02-10T20:44:48.004Z,4.35
2019-02-10T20:47:56.765Z,4.28
2019-02-10T20:50:46.404Z,4.26
2019-02-10T20:53:47.915Z,4.25
2019-02-10T20:56:36.975Z,4.32
2019-02-10T20:59:40.578Z,4.35
2019-02-10T21:02:26.833Z,4.33
2019-02-10T21:05:27.361Z,4.35
2019-02-10T21:08:18.925Z,4.34
2019-02-10T21:11:21.436Z,4.40
2019-02-10T21:14:17.595Z,4.45
2019-02-10T21:17:12.494Z,4.51
2019-02-10T21:20:02.913Z,4.55
2019-02-10T21:22:48.214Z,4.62
2019-02-10T21:25:52.730Z,4.59
2019-02-10T21:28:36.699Z,4.60
2019-02-10T21:31:27.994Z,4.64
2019-02-10T21:34:19.043Z,4.70
2019-02-10T21:37:18.243Z,4.74
2019-02-10T21:40:32.035Z,4.78
2019-02-10T21:43:26.626Z,4.82
2019-02-10T21:46:06.414Z,4.87
2019-02-10T21:48:59.964Z,4.87
2019-02-10T21:51:35.193Z,4.88
2019-02-10T21:54:14.265Z,4.97
2019-02-10T21:56:48.370Z,5.00
2019-02-10T22:03:18.156Z,5.03
2019-02-10T22:08:58.592Z,5.12
2019-02-10T22:11:36.158Z,5.20
2019-02-10T22:14:51.877Z,5.25
2019-02-10T22:24:50.821Z,5.43
2019-02-10T22:31:19.495Z,5.55
2019-02-10T22:41:39.930Z,5.66
2019-02-10T22:45:37.025Z,5.72
2019-02-10T23:02:31.572Z,5.57
2019-02-10T23:05:08.470Z,5.53
2019-02-10T23:07:44.987Z,5.47
2019-02-10T23:10:23.802Z,5.44
2019-02-10T23:12:57.174Z,5.39
2019-02-10T23:15:34.672Z,5.43
2019-02-10T23:18:08.894Z,5.43
2019-02-10T23:20:41.388Z,5.33
2019-02-10T23:23:14.219Z,5.28
2019-02-10T23:29:09.589Z,5.20
2019-02-10T23:31:43.716Z,5.17
2019-02-10T23:34:17.800Z,5.18
2019-02-10T23:36:52.584Z,5.14
2019-02-10T23:39:28.283Z,5.20
2019-02-10T23:42:01.961Z,5.12
2019-02-10T23:44:36.996Z,5.02
2019-02-10T23:48:51.050Z,5.06
2019-02-10T23:51:25.520Z,4.99
2019-02-10T23:53:58.316Z,5.00
2019-02-10T23:56:53.965Z,5.00
2019-02-10T23:59:28.405Z,5.00
